Terminal Aerodrome Forecast
Issued by NWS Goodland, KS

Home | Current Version | Previous Version | Graphics & Text | Print | Product List | Glossary On
Versions: 1 2 3 4 5 6 7 8 9 10 11 12 13 14
000
FTUS43 KGLD 202340
TAFGLD
TAF
KGLD 202340Z 2100/2124 17010KT P6SM SKC
     FM211200 19010KT 4SM BR BKN008
     FM211600 18013G18KT 6SM BR OVC010
     FM211900 18015G20KT P6SM SCT025=

USA.gov is the U.S. government's official web portal to all federal, state and local government web resources and services.